Delta Virtual Airport Information Service

Cincinnati Northern Kentucky International Airport

ICAO: KCVG Country: United States
Latitude: 39.0488 Longitude: -84.6678
Latest Arrival : DAC75 (KDEN-KCVG) Latest Departure : DAL4135742 (KCVG-KLGA)


WX CaptureLIVE
Data provided by noaa.gov | Fetched at 23:03:45

METAR : KCVG 250352Z 32003KT 10SM OVC130 20/17 A3003 RMK AO2 SLP159 T02000172

TAF : KCVG 250023Z 2500/2606 19007KT P6SM -TSRA BKN100CB FM250100 VRB04KT P6SM BKN140 BKN250 FM251000 14003KT P6SM SCT120 SCT250 FM251500 18005KT P6SM SCT040 FM251700 18006KT P6SM VCTS BKN045CB TEMPO 2519/2523 3SM -TSRA SCT025 OVC040CB FM260100 14004KT P6SM BKN250


Runway Data for KCVG
Data provided by openaviationdata.com

Runway ID Mag Var Hdg Length Elevation Surface ILS Freq ILS Id ILS Slope
9 -4 94° 11984 ft 896 ft Asphalt 111.9 IURN 3
18L -4 184° 10010 ft 896 ft Concrete 110.15 ICIZ 3
18R -4 184° 11010 ft 896 ft Asphalt 111.55 ISIC 3
27 -4 274° 11984 ft 896 ft Asphalt 108.7 IJDP 3
36L -4 11010 ft 896 ft Asphalt 109.9 ICVG 3
36R -4 10010 ft 896 ft Concrete 110.35 IEEI 3

Cincinnati Northern Kentucky International Airport, United States
Use only for reference purposes



Not for navigational purposes.